sensor_id;sensor_type;location;lat;lon;timestamp;pressure;altitude;pressure_sealevel;temperature;humidity
76137;BME280;68622;53.128;17.966;2024-02-15T00:00:53;101593.20;;;7.90;76.25
76137;BME280;68622;53.128;17.966;2024-02-15T00:03:36;101592.08;;;7.91;76.03
76137;BME280;68622;53.128;17.966;2024-02-15T00:06:02;101594.08;;;7.92;76.15
76137;BME280;68622;53.128;17.966;2024-02-15T00:08:29;101593.24;;;7.94;76.09
76137;BME280;68622;53.128;17.966;2024-02-15T00:10:55;101591.80;;;7.95;76.42
76137;BME280;68622;53.128;17.966;2024-02-15T00:13:21;101592.96;;;7.93;76.49
76137;BME280;68622;53.128;17.966;2024-02-15T00:15:48;101587.84;;;7.98;75.97
76137;BME280;68622;53.128;17.966;2024-02-15T00:18:16;101584.77;;;8.00;76.25
76137;BME280;68622;53.128;17.966;2024-02-15T00:20:42;101583.27;;;7.93;77.24
76137;BME280;68622;53.128;17.966;2024-02-15T00:23:09;101583.54;;;7.95;77.06
76137;BME280;68622;53.128;17.966;2024-02-15T00:25:35;101583.30;;;7.98;76.91
76137;BME280;68622;53.128;17.966;2024-02-15T00:28:01;101583.11;;;7.99;76.69
76137;BME280;68622;53.128;17.966;2024-02-15T00:30:28;101578.52;;;8.00;76.60
76137;BME280;68622;53.128;17.966;2024-02-15T00:32:54;101579.91;;;8.01;76.97
76137;BME280;68622;53.128;17.966;2024-02-15T00:35:21;101580.16;;;7.96;77.96
76137;BME280;68622;53.128;17.966;2024-02-15T00:37:47;101581.40;;;8.02;77.10
76137;BME280;68622;53.128;17.966;2024-02-15T00:40:15;101579.52;;;8.04;77.08
76137;BME280;68622;53.128;17.966;2024-02-15T00:42:42;101577.81;;;8.06;76.73
76137;BME280;68622;53.128;17.966;2024-02-15T00:45:09;101580.54;;;8.10;76.75
76137;BME280;68622;53.128;17.966;2024-02-15T00:47:36;101580.69;;;8.10;76.50
76137;BME280;68622;53.128;17.966;2024-02-15T00:50:03;101581.36;;;8.13;76.23
76137;BME280;68622;53.128;17.966;2024-02-15T00:52:30;101582.55;;;8.13;76.23
76137;BME280;68622;53.128;17.966;2024-02-15T00:54:56;101579.56;;;8.16;75.89
76137;BME280;68622;53.128;17.966;2024-02-15T00:57:22;101577.02;;;8.21;75.94
76137;BME280;68622;53.128;17.966;2024-02-15T00:59:48;101578.77;;;8.24;75.48
76137;BME280;68622;53.128;17.966;2024-02-15T01:02:14;101579.67;;;8.26;75.82
76137;BME280;68622;53.128;17.966;2024-02-15T01:04:41;101580.27;;;8.27;76.15
76137;BME280;68622;53.128;17.966;2024-02-15T01:07:08;101581.10;;;8.30;75.80
76137;BME280;68622;53.128;17.966;2024-02-15T01:09:34;101577.27;;;8.25;76.91
76137;BME280;68622;53.128;17.966;2024-02-15T01:12:00;101577.05;;;8.28;76.43
76137;BME280;68622;53.128;17.966;2024-02-15T01:14:26;101575.06;;;8.30;76.52
76137;BME280;68622;53.128;17.966;2024-02-15T01:16:56;101576.89;;;8.31;76.17
76137;BME280;68622;53.128;17.966;2024-02-15T01:19:22;101573.70;;;8.33;76.43
76137;BME280;68622;53.128;17.966;2024-02-15T01:21:48;101577.06;;;8.34;76.17
76137;BME280;68622;53.128;17.966;2024-02-15T01:24:14;101573.95;;;8.34;76.32
76137;BME280;68622;53.128;17.966;2024-02-15T01:26:40;101572.57;;;8.34;76.31
76137;BME280;68622;53.128;17.966;2024-02-15T01:29:06;101570.90;;;8.33;76.74
76137;BME280;68622;53.128;17.966;2024-02-15T01:31:32;101570.86;;;8.34;76.53
76137;BME280;68622;53.128;17.966;2024-02-15T01:33:58;101572.12;;;8.33;76.28
76137;BME280;68622;53.128;17.966;2024-02-15T01:36:24;101573.84;;;8.33;76.07
76137;BME280;68622;53.128;17.966;2024-02-15T01:38:50;101572.42;;;8.34;76.27
76137;BME280;68622;53.128;17.966;2024-02-15T01:41:16;101569.64;;;8.34;76.49
76137;BME280;68622;53.128;17.966;2024-02-15T01:43:43;101568.45;;;8.33;76.74
76137;BME280;68622;53.128;17.966;2024-02-15T01:46:10;101563.27;;;8.33;76.75
76137;BME280;68622;53.128;17.966;2024-02-15T01:48:37;101559.83;;;8.33;76.92
76137;BME280;68622;53.128;17.966;2024-02-15T01:51:07;101557.48;;;8.32;77.05
76137;BME280;68622;53.128;17.966;2024-02-15T01:53:33;101559.95;;;8.34;76.84
76137;BME280;68622;53.128;17.966;2024-02-15T01:56:00;101560.04;;;8.35;76.80
76137;BME280;68622;53.128;17.966;2024-02-15T01:58:27;101558.15;;;8.35;77.04
76137;BME280;68622;53.128;17.966;2024-02-15T02:00:55;101556.34;;;8.36;76.64
76137;BME280;68622;53.128;17.966;2024-02-15T02:03:22;101555.11;;;8.37;76.89
76137;BME280;68622;53.128;17.966;2024-02-15T02:05:48;101555.83;;;8.36;77.34
76137;BME280;68622;53.128;17.966;2024-02-15T02:08:15;101557.69;;;8.37;77.46
76137;BME280;68622;53.128;17.966;2024-02-15T02:10:41;101556.80;;;8.40;77.05
76137;BME280;68622;53.128;17.966;2024-02-15T02:13:09;101554.45;;;8.42;76.95
76137;BME280;68622;53.128;17.966;2024-02-15T02:15:35;101552.64;;;8.43;76.94
76137;BME280;68622;53.128;17.966;2024-02-15T02:18:04;101551.54;;;8.44;77.25
76137;BME280;68622;53.128;17.966;2024-02-15T02:20:35;101549.55;;;8.45;76.83
76137;BME280;68622;53.128;17.966;2024-02-15T02:25:35;101552.30;;;8.46;77.31
76137;BME280;68622;53.128;17.966;2024-02-15T02:28:02;101551.34;;;8.47;77.60
76137;BME280;68622;53.128;17.966;2024-02-15T02:30:28;101546.52;;;8.49;77.30
76137;BME280;68622;53.128;17.966;2024-02-15T02:32:56;101543.96;;;8.49;77.72
76137;BME280;68622;53.128;17.966;2024-02-15T02:35:25;101546.05;;;8.51;77.03
76137;BME280;68622;53.128;17.966;2024-02-15T02:37:52;101546.19;;;8.52;77.46
76137;BME280;68622;53.128;17.966;2024-02-15T02:40:22;101541.79;;;8.53;77.24
76137;BME280;68622;53.128;17.966;2024-02-15T02:42:56;101541.45;;;8.55;77.20
76137;BME280;68622;53.128;17.966;2024-02-15T02:45:22;101541.34;;;8.52;78.28
76137;BME280;68622;53.128;17.966;2024-02-15T02:47:49;101537.77;;;8.53;77.84
76137;BME280;68622;53.128;17.966;2024-02-15T02:50:15;101539.54;;;8.55;77.71
76137;BME280;68622;53.128;17.966;2024-02-15T02:52:42;101537.91;;;8.56;77.48
76137;BME280;68622;53.128;17.966;2024-02-15T02:55:07;101540.34;;;8.56;77.71
76137;BME280;68622;53.128;17.966;2024-02-15T02:57:37;101540.52;;;8.56;77.76
76137;BME280;68622;53.128;17.966;2024-02-15T03:00:11;101539.73;;;8.57;77.61
76137;BME280;68622;53.128;17.966;2024-02-15T03:02:43;101542.16;;;8.57;77.98
76137;BME280;68622;53.128;17.966;2024-02-15T03:05:09;101543.07;;;8.59;77.58
76137;BME280;68622;53.128;17.966;2024-02-15T03:07:37;101540.13;;;8.60;77.44
76137;BME280;68622;53.128;17.966;2024-02-15T03:10:04;101539.78;;;8.62;77.55
76137;BME280;68622;53.128;17.966;2024-02-15T03:12:34;101540.48;;;8.64;77.40
76137;BME280;68622;53.128;17.966;2024-02-15T03:15:05;101538.15;;;8.65;77.40
76137;BME280;68622;53.128;17.966;2024-02-15T03:17:40;101538.31;;;8.66;77.54
76137;BME280;68622;53.128;17.966;2024-02-15T03:20:08;101537.31;;;8.65;77.40
76137;BME280;68622;53.128;17.966;2024-02-15T03:22:59;101540.30;;;8.67;77.44
76137;BME280;68622;53.128;17.966;2024-02-15T03:25:26;101541.30;;;8.68;77.41
76137;BME280;68622;53.128;17.966;2024-02-15T03:27:58;101544.02;;;8.66;77.67
76137;BME280;68622;53.128;17.966;2024-02-15T03:30:26;101545.85;;;8.67;77.50
76137;BME280;68622;53.128;17.966;2024-02-15T03:32:53;101544.96;;;8.67;77.71
76137;BME280;68622;53.128;17.966;2024-02-15T03:35:21;101542.02;;;8.67;77.93
76137;BME280;68622;53.128;17.966;2024-02-15T03:37:51;101543.27;;;8.69;77.63
76137;BME280;68622;53.128;17.966;2024-02-15T03:40:18;101549.14;;;8.71;77.71
76137;BME280;68622;53.128;17.966;2024-02-15T03:42:45;101546.62;;;8.73;77.82
76137;BME280;68622;53.128;17.966;2024-02-15T03:45:12;101549.02;;;8.71;77.95
76137;BME280;68622;53.128;17.966;2024-02-15T03:47:38;101547.59;;;8.72;77.88
76137;BME280;68622;53.128;17.966;2024-02-15T03:50:05;101544.36;;;8.73;77.68
76137;BME280;68622;53.128;17.966;2024-02-15T03:52:32;101544.77;;;8.75;77.78
76137;BME280;68622;53.128;17.966;2024-02-15T03:54:58;101542.00;;;8.75;77.72
76137;BME280;68622;53.128;17.966;2024-02-15T03:57:25;101545.22;;;8.76;77.58
76137;BME280;68622;53.128;17.966;2024-02-15T03:59:52;101544.85;;;8.77;77.58
76137;BME280;68622;53.128;17.966;2024-02-15T04:02:24;101534.75;;;8.75;77.42
76137;BME280;68622;53.128;17.966;2024-02-15T04:04:55;101534.95;;;8.77;77.41
76137;BME280;68622;53.128;17.966;2024-02-15T04:07:22;101540.17;;;8.79;77.19
76137;BME280;68622;53.128;17.966;2024-02-15T04:09:53;101545.15;;;8.82;77.30
76137;BME280;68622;53.128;17.966;2024-02-15T04:12:19;101544.95;;;8.80;77.21
76137;BME280;68622;53.128;17.966;2024-02-15T04:14:45;101553.55;;;8.81;77.25
76137;BME280;68622;53.128;17.966;2024-02-15T04:17:12;101552.05;;;8.80;77.30
76137;BME280;68622;53.128;17.966;2024-02-15T04:19:44;101550.12;;;8.81;77.34
76137;BME280;68622;53.128;17.966;2024-02-15T04:22:10;101554.19;;;8.79;78.26
76137;BME280;68622;53.128;17.966;2024-02-15T04:24:36;101552.60;;;8.80;78.09
76137;BME280;68622;53.128;17.966;2024-02-15T04:27:06;101552.83;;;8.81;77.69
76137;BME280;68622;53.128;17.966;2024-02-15T04:29:38;101550.64;;;8.81;77.80
76137;BME280;68622;53.128;17.966;2024-02-15T04:32:06;101554.27;;;8.80;77.83
76137;BME280;68622;53.128;17.966;2024-02-15T04:34:36;101554.04;;;8.79;77.95
76137;BME280;68622;53.128;17.966;2024-02-15T04:37:03;101555.75;;;8.77;77.94
76137;BME280;68622;53.128;17.966;2024-02-15T04:39:33;101554.86;;;8.77;77.85
76137;BME280;68622;53.128;17.966;2024-02-15T04:41:59;101558.36;;;8.79;77.78
76137;BME280;68622;53.128;17.966;2024-02-15T04:44:26;101557.77;;;8.82;77.91
76137;BME280;68622;53.128;17.966;2024-02-15T04:46:54;101560.98;;;8.81;77.82
76137;BME280;68622;53.128;17.966;2024-02-15T04:49:20;101556.59;;;8.79;77.90
76137;BME280;68622;53.128;17.966;2024-02-15T04:51:46;101552.91;;;8.80;77.71
76137;BME280;68622;53.128;17.966;2024-02-15T04:54:14;101552.29;;;8.79;77.92
76137;BME280;68622;53.128;17.966;2024-02-15T04:56:40;101553.50;;;8.79;77.75
76137;BME280;68622;53.128;17.966;2024-02-15T04:59:06;101556.38;;;8.80;78.04
76137;BME280;68622;53.128;17.966;2024-02-15T05:01:35;101559.39;;;8.79;77.82
76137;BME280;68622;53.128;17.966;2024-02-15T05:04:01;101560.62;;;8.81;77.84
76137;BME280;68622;53.128;17.966;2024-02-15T05:06:30;101561.88;;;8.81;77.91
76137;BME280;68622;53.128;17.966;2024-02-15T05:08:56;101560.73;;;8.72;78.95
76137;BME280;68622;53.128;17.966;2024-02-15T05:11:23;101562.19;;;8.73;78.69
76137;BME280;68622;53.128;17.966;2024-02-15T05:13:49;101564.35;;;8.74;78.68
76137;BME280;68622;53.128;17.966;2024-02-15T05:16:16;101558.21;;;8.76;78.24
76137;BME280;68622;53.128;17.966;2024-02-15T05:18:42;101552.10;;;8.77;78.34
76137;BME280;68622;53.128;17.966;2024-02-15T05:21:08;101545.55;;;8.79;78.09
76137;BME280;68622;53.128;17.966;2024-02-15T05:23:40;101545.42;;;8.81;78.01
76137;BME280;68622;53.128;17.966;2024-02-15T05:26:08;101548.94;;;8.83;77.94
76137;BME280;68622;53.128;17.966;2024-02-15T05:28:35;101546.96;;;8.84;77.95
76137;BME280;68622;53.128;17.966;2024-02-15T05:31:14;101552.70;;;8.81;78.14
76137;BME280;68622;53.128;17.966;2024-02-15T05:36:14;101559.16;;;8.82;78.01
76137;BME280;68622;53.128;17.966;2024-02-15T05:38:41;101562.04;;;8.83;77.64
76137;BME280;68622;53.128;17.966;2024-02-15T05:41:07;101559.20;;;8.84;77.83
76137;BME280;68622;53.128;17.966;2024-02-15T05:43:34;101562.30;;;8.85;77.81
76137;BME280;68622;53.128;17.966;2024-02-15T05:46:05;101557.78;;;8.85;77.92
76137;BME280;68622;53.128;17.966;2024-02-15T05:48:35;101557.58;;;8.85;77.60
76137;BME280;68622;53.128;17.966;2024-02-15T05:51:06;101558.41;;;8.86;77.22
76137;BME280;68622;53.128;17.966;2024-02-15T05:53:33;101558.52;;;8.84;77.78
76137;BME280;68622;53.128;17.966;2024-02-15T05:56:06;101558.49;;;8.85;77.67
76137;BME280;68622;53.128;17.966;2024-02-15T05:58:42;101553.95;;;8.85;77.47
76137;BME280;68622;53.128;17.966;2024-02-15T06:01:08;101558.05;;;8.86;77.41
76137;BME280;68622;53.128;17.966;2024-02-15T06:03:37;101566.66;;;8.86;77.43
76137;BME280;68622;53.128;17.966;2024-02-15T06:06:07;101567.73;;;8.86;77.63
76137;BME280;68622;53.128;17.966;2024-02-15T06:08:34;101571.42;;;8.88;77.36
76137;BME280;68622;53.128;17.966;2024-02-15T06:11:00;101567.52;;;8.89;77.59
76137;BME280;68622;53.128;17.966;2024-02-15T06:13:27;101572.78;;;8.85;78.16
76137;BME280;68622;53.128;17.966;2024-02-15T06:15:53;101573.73;;;8.89;77.83
76137;BME280;68622;53.128;17.966;2024-02-15T06:18:27;101574.06;;;8.92;77.43
76137;BME280;68622;53.128;17.966;2024-02-15T06:20:55;101573.22;;;8.95;77.56
76137;BME280;68622;53.128;17.966;2024-02-15T06:23:23;101575.39;;;8.96;77.70
76137;BME280;68622;53.128;17.966;2024-02-15T06:25:51;101577.66;;;8.97;77.55
76137;BME280;68622;53.128;17.966;2024-02-15T06:28:21;101578.83;;;8.98;77.75
76137;BME280;68622;53.128;17.966;2024-02-15T06:31:10;101588.16;;;8.99;77.78
76137;BME280;68622;53.128;17.966;2024-02-15T06:33:55;101586.73;;;9.02;77.60
76137;BME280;68622;53.128;17.966;2024-02-15T06:36:46;101582.33;;;9.05;77.52
76137;BME280;68622;53.128;17.966;2024-02-15T06:39:31;101584.02;;;9.09;77.41
76137;BME280;68622;53.128;17.966;2024-02-15T06:42:04;101588.88;;;9.11;77.30
76137;BME280;68622;53.128;17.966;2024-02-15T06:44:30;101587.48;;;9.13;77.13
76137;BME280;68622;53.128;17.966;2024-02-15T06:46:56;101588.41;;;9.15;77.07
76137;BME280;68622;53.128;17.966;2024-02-15T06:49:23;101593.99;;;9.17;77.10
76137;BME280;68622;53.128;17.966;2024-02-15T06:51:52;101593.39;;;9.19;77.13
76137;BME280;68622;53.128;17.966;2024-02-15T06:54:19;101597.89;;;9.19;77.27
76137;BME280;68622;53.128;17.966;2024-02-15T06:56:45;101599.64;;;9.18;77.27
76137;BME280;68622;53.128;17.966;2024-02-15T06:59:12;101604.77;;;9.19;77.16
76137;BME280;68622;53.128;17.966;2024-02-15T07:01:44;101611.42;;;9.21;77.06
76137;BME280;68622;53.128;17.966;2024-02-15T07:04:10;101614.77;;;9.14;77.37
76137;BME280;68622;53.128;17.966;2024-02-15T07:06:38;101618.92;;;9.12;77.63
76137;BME280;68622;53.128;17.966;2024-02-15T07:09:05;101619.52;;;9.16;77.27
76137;BME280;68622;53.128;17.966;2024-02-15T07:11:33;101615.29;;;9.14;77.54
76137;BME280;68622;53.128;17.966;2024-02-15T07:14:01;101613.71;;;9.17;77.33
76137;BME280;68622;53.128;17.966;2024-02-15T07:16:27;101614.10;;;9.19;77.19
76137;BME280;68622;53.128;17.966;2024-02-15T07:18:53;101617.19;;;9.20;77.34
76137;BME280;68622;53.128;17.966;2024-02-15T07:21:20;101622.45;;;9.21;77.47
76137;BME280;68622;53.128;17.966;2024-02-15T07:23:52;101619.27;;;9.22;77.50
76137;BME280;68622;53.128;17.966;2024-02-15T07:26:21;101615.31;;;9.22;77.71
76137;BME280;68622;53.128;17.966;2024-02-15T07:28:54;101614.69;;;9.26;77.64
76137;BME280;68622;53.128;17.966;2024-02-15T07:31:21;101612.23;;;9.29;77.87
76137;BME280;68622;53.128;17.966;2024-02-15T07:33:48;101610.17;;;9.34;77.69
76137;BME280;68622;53.128;17.966;2024-02-15T07:36:18;101611.28;;;9.35;77.71
76137;BME280;68622;53.128;17.966;2024-02-15T07:38:48;101610.52;;;9.41;77.44
76137;BME280;68622;53.128;17.966;2024-02-15T07:41:15;101610.95;;;9.45;77.34
76137;BME280;68622;53.128;17.966;2024-02-15T07:43:41;101613.70;;;9.47;77.27
76137;BME280;68622;53.128;17.966;2024-02-15T07:46:07;101616.30;;;9.47;77.53
76137;BME280;68622;53.128;17.966;2024-02-15T07:48:33;101615.55;;;9.51;77.29
76137;BME280;68622;53.128;17.966;2024-02-15T07:50:59;101615.10;;;9.55;77.36
76137;BME280;68622;53.128;17.966;2024-02-15T07:53:25;101615.36;;;9.61;77.31
76137;BME280;68622;53.128;17.966;2024-02-15T07:55:51;101617.77;;;9.69;77.15
76137;BME280;68622;53.128;17.966;2024-02-15T07:58:17;101615.59;;;9.75;77.22
76137;BME280;68622;53.128;17.966;2024-02-15T08:00:47;101619.61;;;9.79;77.20
76137;BME280;68622;53.128;17.966;2024-02-15T08:03:13;101621.45;;;9.78;77.22
76137;BME280;68622;53.128;17.966;2024-02-15T08:05:40;101621.46;;;9.75;77.46
76137;BME280;68622;53.128;17.966;2024-02-15T08:08:06;101619.77;;;9.80;77.41
76137;BME280;68622;53.128;17.966;2024-02-15T08:10:32;101621.09;;;9.90;76.97
76137;BME280;68622;53.128;17.966;2024-02-15T08:12:59;101618.33;;;9.95;77.01
76137;BME280;68622;53.128;17.966;2024-02-15T08:15:25;101616.67;;;10.01;76.97
76137;BME280;68622;53.128;17.966;2024-02-15T08:17:53;101619.66;;;10.05;76.85
76137;BME280;68622;53.128;17.966;2024-02-15T08:20:20;101623.30;;;10.01;77.06
76137;BME280;68622;53.128;17.966;2024-02-15T08:22:49;101620.32;;;10.03;76.89
76137;BME280;68622;53.128;17.966;2024-02-15T08:25:15;101625.59;;;10.03;77.02
76137;BME280;68622;53.128;17.966;2024-02-15T08:27:46;101626.56;;;10.06;76.73
76137;BME280;68622;53.128;17.966;2024-02-15T08:30:15;101626.27;;;10.08;76.74
76137;BME280;68622;53.128;17.966;2024-02-15T08:32:42;101629.70;;;10.10;76.67
76137;BME280;68622;53.128;17.966;2024-02-15T08:35:09;101631.63;;;10.11;76.67
76137;BME280;68622;53.128;17.966;2024-02-15T08:37:36;101631.43;;;10.13;76.64
76137;BME280;68622;53.128;17.966;2024-02-15T08:40:04;101631.25;;;10.18;76.61
76137;BME280;68622;53.128;17.966;2024-02-15T08:42:38;101633.30;;;10.23;76.43
76137;BME280;68622;53.128;17.966;2024-02-15T08:45:05;101632.41;;;10.21;76.75
76137;BME280;68622;53.128;17.966;2024-02-15T08:47:31;101632.33;;;10.25;76.57
76137;BME280;68622;53.128;17.966;2024-02-15T08:49:57;101634.80;;;10.22;76.52
76137;BME280;68622;53.128;17.966;2024-02-15T08:52:24;101635.08;;;10.25;76.44
76137;BME280;68622;53.128;17.966;2024-02-15T08:54:52;101631.51;;;10.24;76.46
76137;BME280;68622;53.128;17.966;2024-02-15T08:57:18;101634.55;;;10.23;76.49
76137;BME280;68622;53.128;17.966;2024-02-15T08:59:44;101634.48;;;10.24;76.52
76137;BME280;68622;53.128;17.966;2024-02-15T09:02:10;101631.59;;;10.18;76.85
76137;BME280;68622;53.128;17.966;2024-02-15T09:04:37;101635.87;;;10.11;76.88
76137;BME280;68622;53.128;17.966;2024-02-15T09:07:02;101631.64;;;10.10;77.23
76137;BME280;68622;53.128;17.966;2024-02-15T09:09:30;101629.85;;;10.13;77.37
76137;BME280;68622;53.128;17.966;2024-02-15T09:11:57;101626.69;;;10.19;77.42
76137;BME280;68622;53.128;17.966;2024-02-15T09:14:23;101632.31;;;10.30;77.25
76137;BME280;68622;53.128;17.966;2024-02-15T09:16:49;101633.40;;;10.43;77.13
76137;BME280;68622;53.128;17.966;2024-02-15T09:19:15;101637.73;;;10.62;76.87
76137;BME280;68622;53.128;17.966;2024-02-15T09:21:41;101636.33;;;10.65;76.72
76137;BME280;68622;53.128;17.966;2024-02-15T09:24:07;101633.16;;;10.75;76.47
76137;BME280;68622;53.128;17.966;2024-02-15T09:26:33;101636.23;;;10.78;76.45
76137;BME280;68622;53.128;17.966;2024-02-15T09:29:00;101634.73;;;10.84;76.30
76137;BME280;68622;53.128;17.966;2024-02-15T09:31:26;101632.50;;;10.88;76.20
76137;BME280;68622;53.128;17.966;2024-02-15T09:33:52;101631.58;;;10.94;76.16
76137;BME280;68622;53.128;17.966;2024-02-15T09:36:18;101626.33;;;11.08;75.88
76137;BME280;68622;53.128;17.966;2024-02-15T09:38:44;101627.27;;;11.20;75.66
76137;BME280;68622;53.128;17.966;2024-02-15T09:41:10;101632.08;;;11.30;75.46
76137;BME280;68622;53.128;17.966;2024-02-15T09:43:36;101628.73;;;11.31;75.40
76137;BME280;68622;53.128;17.966;2024-02-15T09:46:02;101629.60;;;11.40;75.27
76137;BME280;68622;53.128;17.966;2024-02-15T09:48:31;101628.37;;;11.51;75.28
76137;BME280;68622;53.128;17.966;2024-02-15T09:50:58;101624.04;;;11.60;75.11
76137;BME280;68622;53.128;17.966;2024-02-15T09:53:26;101625.45;;;11.64;74.76
76137;BME280;68622;53.128;17.966;2024-02-15T09:55:53;101624.48;;;11.77;74.73
76137;BME280;68622;53.128;17.966;2024-02-15T09:58:21;101628.73;;;11.80;74.21
76137;BME280;68622;53.128;17.966;2024-02-15T10:00:49;101625.27;;;11.93;74.10
76137;BME280;68622;53.128;17.966;2024-02-15T10:03:18;101633.17;;;11.99;74.02
76137;BME280;68622;53.128;17.966;2024-02-15T10:05:48;101633.82;;;11.97;73.77
76137;BME280;68622;53.128;17.966;2024-02-15T10:08:17;101635.23;;;11.97;73.65
76137;BME280;68622;53.128;17.966;2024-02-15T10:10:43;101634.56;;;12.07;73.62
76137;BME280;68622;53.128;17.966;2024-02-15T10:13:13;101636.95;;;12.10;73.72
76137;BME280;68622;53.128;17.966;2024-02-15T10:15:39;101638.35;;;12.08;73.82
76137;BME280;68622;53.128;17.966;2024-02-15T10:18:10;101640.80;;;12.01;73.65
76137;BME280;68622;53.128;17.966;2024-02-15T10:20:38;101637.66;;;11.92;73.85
76137;BME280;68622;53.128;17.966;2024-02-15T10:25:35;101638.13;;;11.73;74.16
76137;BME280;68622;53.128;17.966;2024-02-15T10:28:02;101634.07;;;11.52;74.46
76137;BME280;68622;53.128;17.966;2024-02-15T10:30:29;101629.06;;;11.60;74.54
76137;BME280;68622;53.128;17.966;2024-02-15T10:32:55;101628.38;;;11.62;74.64
76137;BME280;68622;53.128;17.966;2024-02-15T10:35:23;101625.48;;;11.68;74.65
76137;BME280;68622;53.128;17.966;2024-02-15T10:37:49;101627.05;;;11.70;74.58
76137;BME280;68622;53.128;17.966;2024-02-15T10:40:20;101620.77;;;11.73;74.40
76137;BME280;68622;53.128;17.966;2024-02-15T10:42:47;101616.27;;;11.88;74.28
76137;BME280;68622;53.128;17.966;2024-02-15T10:45:15;101615.55;;;12.02;74.28
76137;BME280;68622;53.128;17.966;2024-02-15T10:47:46;101618.12;;;12.15;74.24
76137;BME280;68622;53.128;17.966;2024-02-15T10:50:16;101613.16;;;12.25;74.22
76137;BME280;68622;53.128;17.966;2024-02-15T10:52:55;101610.06;;;12.29;73.83
76137;BME280;68622;53.128;17.966;2024-02-15T10:55:51;101608.80;;;12.38;73.88
76137;BME280;68622;53.128;17.966;2024-02-15T10:58:19;101607.21;;;12.38;73.47
76137;BME280;68622;53.128;17.966;2024-02-15T11:00:47;101610.77;;;12.28;72.73
76137;BME280;68622;53.128;17.966;2024-02-15T11:03:25;101609.31;;;12.31;73.10
76137;BME280;68622;53.128;17.966;2024-02-15T11:05:52;101604.36;;;12.37;73.49
76137;BME280;68622;53.128;17.966;2024-02-15T11:08:21;101600.19;;;12.43;73.59
76137;BME280;68622;53.128;17.966;2024-02-15T11:10:48;101601.29;;;12.46;73.73
76137;BME280;68622;53.128;17.966;2024-02-15T11:13:15;101601.65;;;12.48;73.72
76137;BME280;68622;53.128;17.966;2024-02-15T11:15:44;101596.07;;;12.50;73.47
76137;BME280;68622;53.128;17.966;2024-02-15T11:21:17;101595.98;;;12.60;72.83
76137;BME280;68622;53.128;17.966;2024-02-15T11:23:44;101596.95;;;12.67;73.06
76137;BME280;68622;53.128;17.966;2024-02-15T11:26:43;101595.48;;;12.74;72.77
76137;BME280;68622;53.128;17.966;2024-02-15T11:32:42;101588.27;;;12.81;71.87
76137;BME280;68622;53.128;17.966;2024-02-15T11:35:23;101590.27;;;12.85;71.56
76137;BME280;68622;53.128;17.966;2024-02-15T11:40:59;101587.34;;;13.03;71.48
76137;BME280;68622;53.128;17.966;2024-02-15T11:43:46;101586.62;;;13.03;71.33
76137;BME280;68622;53.128;17.966;2024-02-15T11:46:16;101580.58;;;13.13;71.71
76137;BME280;68622;53.128;17.966;2024-02-15T11:48:46;101579.71;;;13.15;71.22
76137;BME280;68622;53.128;17.966;2024-02-15T11:51:33;101578.95;;;13.18;71.22
76137;BME280;68622;53.128;17.966;2024-02-15T11:54:09;101583.36;;;13.09;71.56
76137;BME280;68622;53.128;17.966;2024-02-15T11:59:10;101587.00;;;13.09;71.17
76137;BME280;68622;53.128;17.966;2024-02-15T12:01:45;101588.32;;;13.02;70.97
76137;BME280;68622;53.128;17.966;2024-02-15T12:04:30;101586.16;;;12.94;70.90
76137;BME280;68622;53.128;17.966;2024-02-15T12:07:15;101587.21;;;12.86;71.20
76137;BME280;68622;53.128;17.966;2024-02-15T12:10:00;101591.77;;;12.79;71.32
76137;BME280;68622;53.128;17.966;2024-02-15T12:12:52;101592.61;;;12.79;71.62
76137;BME280;68622;53.128;17.966;2024-02-15T12:15:37;101593.75;;;12.72;71.48
76137;BME280;68622;53.128;17.966;2024-02-15T12:18:21;101591.33;;;12.74;71.44
76137;BME280;68622;53.128;17.966;2024-02-15T12:21:09;101592.30;;;12.75;71.65
76137;BME280;68622;53.128;17.966;2024-02-15T12:23:38;101588.56;;;12.78;71.73
76137;BME280;68622;53.128;17.966;2024-02-15T12:26:04;101584.98;;;12.87;71.57
76137;BME280;68622;53.128;17.966;2024-02-15T12:28:31;101582.94;;;12.89;71.04
76137;BME280;68622;53.128;17.966;2024-02-15T12:30:57;101578.40;;;12.93;71.02
76137;BME280;68622;53.128;17.966;2024-02-15T12:33:23;101579.78;;;12.95;71.10
76137;BME280;68622;53.128;17.966;2024-02-15T12:35:49;101578.76;;;12.93;70.85
76137;BME280;68622;53.128;17.966;2024-02-15T12:38:17;101575.44;;;12.89;71.08
76137;BME280;68622;53.128;17.966;2024-02-15T12:40:43;101575.67;;;12.92;71.30
76137;BME280;68622;53.128;17.966;2024-02-15T12:43:11;101578.44;;;12.95;71.19
76137;BME280;68622;53.128;17.966;2024-02-15T12:45:39;101579.10;;;12.91;70.83
76137;BME280;68622;53.128;17.966;2024-02-15T12:48:08;101576.55;;;12.86;70.94
76137;BME280;68622;53.128;17.966;2024-02-15T12:50:35;101575.44;;;12.93;70.95
76137;BME280;68622;53.128;17.966;2024-02-15T12:53:01;101575.40;;;12.91;71.08
76137;BME280;68622;53.128;17.966;2024-02-15T12:55:29;101574.67;;;12.90;70.99
76137;BME280;68622;53.128;17.966;2024-02-15T12:58:02;101576.16;;;12.88;71.27
76137;BME280;68622;53.128;17.966;2024-02-15T13:00:35;101573.08;;;12.86;70.89
76137;BME280;68622;53.128;17.966;2024-02-15T13:03:14;101579.52;;;12.92;70.95
76137;BME280;68622;53.128;17.966;2024-02-15T13:05:42;101573.16;;;12.96;71.02
76137;BME280;68622;53.128;17.966;2024-02-15T13:08:09;101573.00;;;12.99;71.21
76137;BME280;68622;53.128;17.966;2024-02-15T13:10:43;101576.58;;;12.98;71.08
76137;BME280;68622;53.128;17.966;2024-02-15T13:13:09;101574.14;;;13.00;71.19